createdAt,value
2019-02-28T00:02:25.193Z,55.87
2019-02-28T00:04:52.222Z,55.66
2019-02-28T00:07:19.356Z,58.21
2019-02-28T00:09:46.483Z,58.30
2019-02-28T00:12:14.419Z,57.42
2019-02-28T00:14:42.024Z,57.77
2019-02-28T00:17:09.850Z,57.41
2019-02-28T00:19:37.039Z,57.08
2019-02-28T00:22:04.913Z,57.42
2019-02-28T00:24:34.586Z,57.04
2019-02-28T00:27:01.621Z,56.56
2019-02-28T00:29:33.699Z,56.42
2019-02-28T00:32:01.045Z,56.43
2019-02-28T00:34:28.256Z,56.45
2019-02-28T00:36:55.282Z,56.23
2019-02-28T00:39:22.531Z,55.68
2019-02-28T00:41:50.246Z,55.71
2019-02-28T00:44:18.372Z,55.69
2019-02-28T00:46:45.553Z,55.78
2019-02-28T00:49:12.885Z,55.53
2019-02-28T00:51:40.543Z,55.63
2019-02-28T00:54:08.536Z,55.49
2019-02-28T00:56:36.883Z,55.18
2019-02-28T00:59:03.890Z,55.13
2019-02-28T01:01:30.973Z,55.12
2019-02-28T01:03:59.127Z,54.92
2019-02-28T01:06:26.396Z,54.65
2019-02-28T01:08:56.054Z,54.56
2019-02-28T01:11:23.300Z,54.39
2019-02-28T01:13:50.744Z,54.30
2019-02-28T01:16:19.408Z,54.21
2019-02-28T01:18:46.753Z,54.09
2019-02-28T01:21:14.135Z,53.89
2019-02-28T01:23:41.178Z,53.84
2019-02-28T01:26:08.220Z,53.92
2019-02-28T01:28:35.269Z,53.86
2019-02-28T01:31:02.592Z,53.68
2019-02-28T01:33:29.659Z,53.53
2019-02-28T01:35:57.026Z,53.50
2019-02-28T01:38:25.303Z,53.49
2019-02-28T01:41:08.388Z,53.54
2019-02-28T01:44:35.494Z,53.57
2019-02-28T01:47:14.029Z,53.42
2019-02-28T01:54:19.523Z,53.19
2019-02-28T02:00:16.047Z,53.42
2019-02-28T02:03:46.072Z,53.33
2019-02-28T02:06:42.632Z,53.31
2019-02-28T02:09:46.261Z,54.05
2019-02-28T02:16:07.762Z,54.88
2019-02-28T02:19:18.506Z,54.15
2019-02-28T02:22:09.178Z,53.72
2019-02-28T02:24:46.437Z,53.78
2019-02-28T02:27:39.883Z,53.98
2019-02-28T02:30:27.139Z,54.38
2019-02-28T02:33:22.314Z,54.42
2019-02-28T02:36:10.934Z,54.33
2019-02-28T02:38:51.879Z,54.75
2019-02-28T02:41:33.809Z,55.00
2019-02-28T02:44:32.820Z,55.35
2019-02-28T02:47:44.851Z,55.67
2019-02-28T02:50:30.237Z,56.03
2019-02-28T02:53:26.306Z,56.62
2019-02-28T02:59:23.884Z,57.28
2019-02-28T03:02:06.644Z,56.99
2019-02-28T03:05:01.293Z,57.06
2019-02-28T03:07:40.294Z,57.73
2019-02-28T03:10:19.998Z,58.18
2019-02-28T03:13:12.439Z,58.47
2019-02-28T03:16:02.891Z,58.97
2019-02-28T03:18:56.879Z,59.67
2019-02-28T03:21:35.628Z,59.83
2019-02-28T03:24:20.203Z,59.99
2019-02-28T03:27:20.138Z,60.43
2019-02-28T03:30:02.894Z,61.09
2019-02-28T03:32:48.911Z,61.25
2019-02-28T03:35:40.581Z,60.98
2019-02-28T03:38:12.767Z,61.34
2019-02-28T03:41:06.987Z,61.62
2019-02-28T03:43:55.931Z,61.42
2019-02-28T03:46:39.096Z,61.16
2019-02-28T03:49:30.608Z,61.24
2019-02-28T03:52:16.691Z,61.49
2019-02-28T03:55:23.108Z,61.89
2019-02-28T03:58:18.088Z,61.55
2019-02-28T04:01:14.058Z,61.51
2019-02-28T04:03:53.687Z,61.59
2019-02-28T04:06:39.749Z,61.20
2019-02-28T04:09:27.233Z,61.00
2019-02-28T04:12:26.013Z,61.34
2019-02-28T04:15:10.164Z,61.22
2019-02-28T04:17:48.909Z,61.09
2019-02-28T04:20:47.448Z,61.67
2019-02-28T04:27:21.193Z,61.99
2019-02-28T04:30:45.796Z,61.81
2019-02-28T04:33:37.673Z,62.17
2019-02-28T04:36:20.498Z,62.32
2019-02-28T04:39:04.476Z,62.31
2019-02-28T04:41:53.962Z,61.94
2019-02-28T04:44:52.958Z,61.88
2019-02-28T04:47:40.532Z,62.32
2019-02-28T04:50:21.495Z,63.33
2019-02-28T04:53:52.916Z,63.79
2019-02-28T04:56:47.129Z,64.02
2019-02-28T04:59:45.285Z,64.12
2019-02-28T05:03:06.980Z,63.60
2019-02-28T05:07:05.862Z,63.35
2019-02-28T05:14:24.344Z,63.55
2019-02-28T05:19:56.275Z,64.12
2019-02-28T05:25:21.725Z,64.72
2019-02-28T05:28:28.653Z,64.93
2019-02-28T05:31:14.235Z,65.11
2019-02-28T05:34:37.306Z,65.18
2019-02-28T05:37:43.813Z,65.43
2019-02-28T05:40:41.388Z,65.74
2019-02-28T05:44:07.247Z,65.54
2019-02-28T05:46:43.869Z,66.18
2019-02-28T05:49:28.440Z,66.17
2019-02-28T05:52:08.890Z,65.61
2019-02-28T05:54:42.408Z,65.43
2019-02-28T05:57:56.951Z,64.22
2019-02-28T06:01:02.708Z,63.39
2019-02-28T06:03:38.846Z,63.14
2019-02-28T06:15:21.259Z,63.09
2019-02-28T06:18:27.053Z,63.15
2019-02-28T06:21:07.789Z,63.09
2019-02-28T06:23:44.769Z,62.70
2019-02-28T06:26:18.425Z,62.35
2019-02-28T06:28:58.010Z,62.42
2019-02-28T06:31:34.304Z,62.34
2019-02-28T06:34:33.368Z,62.05
2019-02-28T06:40:55.569Z,61.82
2019-02-28T07:02:41.117Z,60.52
2019-02-28T07:09:43.894Z,58.65
2019-02-28T07:13:46.067Z,57.85
2019-02-28T07:17:59.357Z,56.68
2019-02-28T07:32:36.679Z,51.34
2019-02-28T07:35:18.870Z,51.10
2019-02-28T07:38:15.745Z,49.92
2019-02-28T07:47:37.288Z,47.49
2019-02-28T07:50:23.610Z,46.77
2019-02-28T07:53:34.238Z,46.75
2019-02-28T07:59:21.810Z,47.13
2019-02-28T08:02:23.291Z,47.23
2019-02-28T08:04:58.733Z,46.49
2019-02-28T08:11:21.350Z,45.31
2019-02-28T08:14:04.629Z,44.30
2019-02-28T08:20:44.963Z,44.19
2019-02-28T08:23:29.841Z,44.27
2019-02-28T08:26:28.135Z,44.09
2019-02-28T08:29:19.461Z,44.61
2019-02-28T08:32:17.232Z,43.99
2019-02-28T08:38:25.237Z,44.08
2019-02-28T08:41:29.236Z,43.48
2019-02-28T08:44:03.384Z,43.37
2019-02-28T08:46:46.376Z,44.01
2019-02-28T08:49:31.304Z,43.24
2019-02-28T08:52:14.896Z,43.53
2019-02-28T08:58:26.723Z,43.67
2019-02-28T09:05:16.965Z,42.47
2019-02-28T09:08:01.055Z,42.45
2019-02-28T09:10:37.431Z,42.24
2019-02-28T09:16:55.214Z,40.68
2019-02-28T09:20:12.665Z,40.98
2019-02-28T09:22:53.078Z,40.93
2019-02-28T09:26:14.557Z,41.65
2019-02-28T09:29:12.913Z,41.82
2019-02-28T09:31:58.620Z,40.94
2019-02-28T09:34:38.002Z,40.00
2019-02-28T09:37:20.223Z,39.14
2019-02-28T09:40:50.737Z,37.55
2019-02-28T09:43:39.182Z,36.24
2019-02-28T09:46:47.525Z,36.74
2019-02-28T09:49:44.284Z,36.90
2019-02-28T09:52:25.662Z,36.45
2019-02-28T09:58:38.779Z,35.30
2019-02-28T10:01:16.277Z,34.44
2019-02-28T10:04:10.329Z,33.30
2019-02-28T10:06:51.483Z,33.44
2019-02-28T10:09:40.585Z,32.62
2019-02-28T10:20:16.992Z,31.95
2019-02-28T10:22:58.356Z,31.72
2019-02-28T10:25:57.041Z,30.49
2019-02-28T10:29:07.434Z,29.28
2019-02-28T10:35:52.719Z,29.60
2019-02-28T10:45:47.867Z,28.20
2019-02-28T10:49:21.076Z,28.33
2019-02-28T10:58:38.782Z,30.32
2019-02-28T11:02:20.434Z,33.26
2019-02-28T11:06:21.733Z,33.67
2019-02-28T11:09:04.478Z,33.38
2019-02-28T12:01:31.208Z,29.86
2019-02-28T12:04:57.007Z,29.95
2019-02-28T12:11:21.387Z,24.86
2019-02-28T12:14:45.842Z,24.72
2019-02-28T12:21:04.933Z,22.61
2019-02-28T12:24:32.378Z,23.44
2019-02-28T14:59:50.487Z,31.58
2019-02-28T15:23:51.243Z,36.09
2019-02-28T16:33:44.262Z,38.27
2019-02-28T16:36:46.027Z,39.61
2019-02-28T16:39:33.567Z,40.73
2019-02-28T16:42:12.492Z,41.18
2019-02-28T16:45:02.603Z,42.66
2019-02-28T16:48:03.026Z,44.14
2019-02-28T16:51:03.673Z,45.13
2019-02-28T17:02:45.502Z,47.47
2019-02-28T17:14:02.455Z,50.14
2019-02-28T17:16:38.164Z,50.35
2019-02-28T17:19:08.514Z,50.29
2019-02-28T17:21:52.092Z,50.21
2019-02-28T17:24:17.675Z,50.02
2019-02-28T17:27:10.520Z,49.92
2019-02-28T17:29:48.283Z,49.95
2019-02-28T17:32:15.652Z,50.13
2019-02-28T17:34:42.793Z,50.03
2019-02-28T17:37:10.016Z,50.03
2019-02-28T17:39:37.131Z,50.15
2019-02-28T17:42:08.538Z,50.29
2019-02-28T17:45:04.244Z,50.47
2019-02-28T17:48:21.961Z,50.49
2019-02-28T17:51:09.470Z,50.49
2019-02-28T17:54:31.750Z,50.87
2019-02-28T17:57:28.277Z,51.00
2019-02-28T18:00:23.787Z,51.33
2019-02-28T18:03:12.977Z,51.68
2019-02-28T18:06:47.215Z,51.70
2019-02-28T18:09:50.412Z,51.63
2019-02-28T18:13:10.261Z,51.57
2019-02-28T18:16:21.506Z,51.81
2019-02-28T18:19:41.791Z,52.23
2019-02-28T18:22:56.605Z,52.41
2019-02-28T18:25:52.336Z,52.78
2019-02-28T18:28:58.844Z,53.17
2019-02-28T18:31:26.142Z,53.56
2019-02-28T18:34:20.562Z,53.72
2019-02-28T18:36:46.288Z,53.61
2019-02-28T18:39:13.753Z,54.10
2019-02-28T18:41:42.301Z,54.43
2019-02-28T18:44:10.254Z,54.91
2019-02-28T18:46:37.397Z,55.21
2019-02-28T18:49:05.909Z,55.35
2019-02-28T18:51:33.029Z,55.03
2019-02-28T18:54:00.175Z,55.31
2019-02-28T18:56:27.298Z,55.29
2019-02-28T18:58:54.411Z,55.30
2019-02-28T19:01:21.636Z,55.33
2019-02-28T19:03:48.763Z,55.30
2019-02-28T19:06:15.895Z,55.50
2019-02-28T19:08:43.333Z,55.42
2019-02-28T19:11:10.454Z,55.51
2019-02-28T19:13:37.651Z,55.68
2019-02-28T19:16:05.087Z,55.27
2019-02-28T19:18:32.188Z,55.32
2019-02-28T19:21:08.201Z,55.09
2019-02-28T19:23:35.413Z,55.45
2019-02-28T19:26:02.526Z,55.58
2019-02-28T19:28:29.746Z,55.29
2019-02-28T19:30:57.203Z,54.84
2019-02-28T19:33:24.553Z,54.56
2019-02-28T19:35:51.866Z,54.88
2019-02-28T19:38:19.080Z,54.96
2019-02-28T19:40:46.288Z,55.01
2019-02-28T19:43:13.543Z,54.85
2019-02-28T19:45:41.747Z,54.55
2019-02-28T19:48:09.011Z,54.43
2019-02-28T19:50:36.158Z,54.45
2019-02-28T19:53:03.680Z,54.37
2019-02-28T19:55:30.852Z,54.42
2019-02-28T19:57:57.982Z,54.73
2019-02-28T20:00:25.135Z,55.15
2019-02-28T20:02:52.238Z,55.27
2019-02-28T20:05:19.379Z,55.61
2019-02-28T20:07:46.566Z,55.42
2019-02-28T20:10:14.785Z,55.63
2019-02-28T20:12:42.028Z,55.81
2019-02-28T20:15:11.348Z,55.78
2019-02-28T20:17:38.484Z,55.76
2019-02-28T20:20:09.458Z,55.94
2019-02-28T20:22:36.648Z,56.45
2019-02-28T20:25:05.451Z,56.13
2019-02-28T20:27:33.058Z,56.09
2019-02-28T20:30:08.718Z,55.83
2019-02-28T20:32:36.401Z,55.98
2019-02-28T20:35:04.588Z,55.82
2019-02-28T20:37:33.644Z,55.31
2019-02-28T20:40:00.779Z,54.38
2019-02-28T20:42:27.917Z,54.33
2019-02-28T20:44:55.116Z,54.21
2019-02-28T20:47:22.266Z,54.86
2019-02-28T20:49:49.797Z,55.46
2019-02-28T20:52:18.306Z,55.48
2019-02-28T20:54:45.444Z,55.51
2019-02-28T20:57:12.953Z,55.72
2019-02-28T20:59:41.196Z,56.84
2019-02-28T21:02:08.415Z,56.89
2019-02-28T21:04:36.709Z,56.94
2019-02-28T21:07:03.929Z,57.15
2019-02-28T21:09:32.927Z,56.51
2019-02-28T21:12:00.022Z,56.62
2019-02-28T21:14:27.197Z,56.74
2019-02-28T21:16:54.282Z,56.66
2019-02-28T21:19:21.602Z,56.30
2019-02-28T21:21:48.869Z,56.17
2019-02-28T21:24:16.331Z,55.90
2019-02-28T21:26:43.564Z,55.72
2019-02-28T21:29:10.841Z,55.62
2019-02-28T21:31:38.050Z,55.02
2019-02-28T21:34:05.357Z,54.92
2019-02-28T21:36:33.123Z,55.39
2019-02-28T21:39:00.448Z,56.02
2019-02-28T21:41:27.694Z,56.74
2019-02-28T21:43:55.311Z,56.49
2019-02-28T21:46:22.821Z,56.01
2019-02-28T21:48:49.985Z,56.68
2019-02-28T21:51:17.541Z,57.06
2019-02-28T21:53:44.584Z,57.02
2019-02-28T21:56:11.716Z,56.76
2019-02-28T21:58:38.926Z,56.30
2019-02-28T22:01:06.321Z,55.74
2019-02-28T22:03:33.572Z,54.94
2019-02-28T22:06:00.765Z,54.41
2019-02-28T22:08:27.880Z,54.37
2019-02-28T22:10:55.075Z,54.42
2019-02-28T22:13:22.159Z,54.57
2019-02-28T22:15:49.394Z,55.16
2019-02-28T22:18:16.493Z,55.67
2019-02-28T22:20:43.635Z,55.58
2019-02-28T22:23:10.733Z,56.10
2019-02-28T22:25:37.839Z,56.72
2019-02-28T22:28:05.142Z,56.67
2019-02-28T22:31:02.072Z,56.88
2019-02-28T22:33:51.810Z,57.11
2019-02-28T22:36:22.702Z,57.55
2019-02-28T22:38:49.805Z,57.46
2019-02-28T22:41:16.924Z,57.79
2019-02-28T22:43:43.997Z,57.67
2019-02-28T22:46:11.109Z,57.25
2019-02-28T22:48:38.381Z,57.17
2019-02-28T22:51:05.514Z,56.92
2019-02-28T22:53:32.599Z,57.06
2019-02-28T22:55:59.734Z,57.32
2019-02-28T22:58:26.861Z,57.92
2019-02-28T23:01:03.145Z,58.19
2019-02-28T23:03:32.001Z,58.51
2019-02-28T23:05:59.710Z,58.57
2019-02-28T23:08:26.894Z,58.49
2019-02-28T23:10:54.001Z,58.52
2019-02-28T23:13:21.104Z,58.68
2019-02-28T23:15:48.248Z,59.04
2019-02-28T23:18:15.376Z,59.68
2019-02-28T23:20:42.614Z,60.33
2019-02-28T23:23:09.728Z,61.77
2019-02-28T23:25:36.839Z,63.04
2019-02-28T23:28:12.251Z,64.65
2019-02-28T23:31:08.773Z,65.96
2019-02-28T23:33:36.047Z,66.78
2019-02-28T23:36:04.084Z,67.23
2019-02-28T23:38:37.841Z,67.25
2019-02-28T23:41:05.221Z,67.91
2019-02-28T23:43:34.172Z,68.45
2019-02-28T23:46:02.905Z,68.50
2019-02-28T23:48:30.006Z,68.52
2019-02-28T23:50:57.233Z,68.62
2019-02-28T23:53:24.370Z,68.83
2019-02-28T23:55:51.512Z,68.92
2019-02-28T23:58:18.652Z,69.00
